createdAt,value
2023-04-01T00:08:59.233Z,61.99
2023-04-01T00:19:24.880Z,61.95
2023-04-01T00:29:50.936Z,61.86
2023-04-01T00:40:28.271Z,61.55
2023-04-01T00:50:59.166Z,61.17
2023-04-01T01:01:26.823Z,60.78
2023-04-01T01:12:01.584Z,60.57
2023-04-01T01:22:38.715Z,60.46
2023-04-01T01:33:22.708Z,60.67
2023-04-01T01:43:53.938Z,60.82
2023-04-01T01:54:20.471Z,61.24
2023-04-01T02:04:48.433Z,61.27
2023-04-01T02:15:17.391Z,61.50
2023-04-01T02:25:45.371Z,61.61
2023-04-01T02:36:15.056Z,62.14
2023-04-01T02:46:40.783Z,62.29
2023-04-01T02:57:06.803Z,62.30
2023-04-01T03:07:32.769Z,62.43
2023-04-01T03:17:58.549Z,62.73
2023-04-01T03:28:24.292Z,62.44
2023-04-01T03:38:58.516Z,62.41
2023-04-01T03:49:23.957Z,62.47
2023-04-01T03:59:49.676Z,62.76
2023-04-01T04:10:15.727Z,62.48
2023-04-01T04:20:49.560Z,62.61
2023-04-01T04:31:20.211Z,62.76
2023-04-01T04:41:46.172Z,62.57
2023-04-01T04:52:12.060Z,62.31
2023-04-01T05:02:38.554Z,62.37
2023-04-01T05:13:04.653Z,62.57
2023-04-01T05:23:31.289Z,62.90
2023-04-01T05:33:57.153Z,62.82
2023-04-01T05:44:22.605Z,62.82
2023-04-01T05:54:48.102Z,62.90
2023-04-01T06:05:20.327Z,63.26
2023-04-01T06:15:56.105Z,63.29
2023-04-01T06:26:33.941Z,63.41
2023-04-01T06:37:17.399Z,63.61
2023-04-01T06:47:57.047Z,63.77
2023-04-01T06:58:26.672Z,64.02
2023-04-01T07:08:55.230Z,63.82
2023-04-01T07:19:29.275Z,63.77
2023-04-01T07:29:58.546Z,63.68
2023-04-01T07:40:36.692Z,63.50
2023-04-01T07:51:11.252Z,63.43
2023-04-01T08:01:42.391Z,63.57
2023-04-01T08:12:22.946Z,63.54
2023-04-01T08:22:53.833Z,63.78
2023-04-01T08:33:26.262Z,63.98
2023-04-01T08:44:33.444Z,63.97
2023-04-01T08:55:15.429Z,64.35
2023-04-01T09:05:58.698Z,65.38
2023-04-01T09:16:40.497Z,65.93
2023-04-01T09:27:17.836Z,66.07
2023-04-01T09:37:56.564Z,65.60
2023-04-01T09:48:42.651Z,64.56
2023-04-01T09:59:53.376Z,64.20
2023-04-01T10:11:01.587Z,64.75
2023-04-01T10:21:49.031Z,66.12
2023-04-01T10:32:50.790Z,66.13
2023-04-01T10:43:54.570Z,64.94
2023-04-01T10:54:48.472Z,65.17
2023-04-01T11:05:45.642Z,65.30
2023-04-01T11:16:43.691Z,64.66
2023-04-01T11:27:21.959Z,65.42
2023-04-01T11:37:56.640Z,66.08
2023-04-01T11:48:44.916Z,65.96
2023-04-01T11:59:46.678Z,65.64
2023-04-01T12:10:21.077Z,66.91
2023-04-01T12:20:54.433Z,67.29
2023-04-01T12:31:34.230Z,66.56
2023-04-01T12:42:14.086Z,65.55
2023-04-01T12:52:48.175Z,65.22
2023-04-01T13:03:36.031Z,65.01
2023-04-01T13:14:31.367Z,64.29
2023-04-01T13:25:05.615Z,64.40
2023-04-01T13:35:41.448Z,64.43
2023-04-01T13:46:28.422Z,64.51
2023-04-01T13:57:08.802Z,64.91
2023-04-01T14:07:49.726Z,65.62
2023-04-01T14:18:29.910Z,65.75
2023-04-01T14:29:02.935Z,65.22
2023-04-01T14:39:51.986Z,64.05
2023-04-01T14:50:20.181Z,62.22
2023-04-01T15:01:02.408Z,63.21
2023-04-01T15:11:45.984Z,64.11
2023-04-01T15:22:28.272Z,65.00
2023-04-01T15:33:05.136Z,65.45
2023-04-01T15:43:43.948Z,65.52
2023-04-01T15:54:28.597Z,65.92
2023-04-01T16:05:00.875Z,66.53
2023-04-01T16:15:32.831Z,66.64
2023-04-01T16:26:07.811Z,66.94
2023-04-01T16:36:38.099Z,66.95
2023-04-01T16:47:13.115Z,66.84
2023-04-01T16:57:51.341Z,66.57
2023-04-01T17:08:25.360Z,66.83
2023-04-01T17:19:01.415Z,66.79
2023-04-01T17:29:34.122Z,66.33
2023-04-01T17:40:14.075Z,65.67
2023-04-01T17:50:55.388Z,65.82
2023-04-01T18:01:32.231Z,66.04
2023-04-01T18:12:11.475Z,66.35
2023-04-01T18:22:45.157Z,66.55
2023-04-01T18:33:23.515Z,66.49
2023-04-01T18:44:04.119Z,66.47
2023-04-01T18:54:33.459Z,66.67
2023-04-01T19:05:07.971Z,67.00
2023-04-01T19:15:41.900Z,67.01
2023-04-01T19:26:13.255Z,66.93
2023-04-01T19:36:47.550Z,66.57
2023-04-01T19:47:22.999Z,66.65
2023-04-01T19:57:55.148Z,66.63
2023-04-01T20:08:29.327Z,66.89
2023-04-01T20:18:59.161Z,66.87
2023-04-01T20:29:49.406Z,66.75
2023-04-01T20:40:37.345Z,66.97
2023-04-01T20:51:08.813Z,67.08
2023-04-01T21:01:46.948Z,66.90
2023-04-01T21:12:28.079Z,66.85
2023-04-01T21:23:17.326Z,66.95
2023-04-01T21:33:55.187Z,67.13
2023-04-01T21:44:39.240Z,67.10
2023-04-01T21:55:29.087Z,67.33
2023-04-01T22:06:02.322Z,67.29
2023-04-01T22:16:33.391Z,67.26
2023-04-01T22:27:05.091Z,67.18
2023-04-01T22:37:41.305Z,67.04
2023-04-01T22:48:13.400Z,66.71
2023-04-01T22:58:45.214Z,66.93
2023-04-01T23:09:17.151Z,66.82
2023-04-01T23:19:49.695Z,66.71
2023-04-01T23:30:52.276Z,66.89
2023-04-01T23:41:26.520Z,66.87
2023-04-01T23:51:58.490Z,66.87
